Cragin, Illinois
Current Conditions -  °F | °C
As of 3:51 AM on Monday 26 Jan 2015 (Local Time) from KORD Reporting Station
Broken Clouds Broken Clouds  
Wind Chill: 22°   Ceiling: 2200
Heat Index: 22°   Visibility: 10mi
Dew Point: 14°   Wind: 3mph
Humidity: 72%   Direction: 10°N
Pressure: 29.97"   Gusts: NA
Location:  41.92°N, 87.7562°W
Report Text: KORD 260951Z 01003KT 10SM BKN022 M06/M10 A2997 RMK AO2 SLP157 T10561100
Loading
Personal Weather Stations






























Interactive Weather Map New forecast layout! Learn more

10-Day Weather Forecast

Advertisements
Track Severe Weather on mobile